createdAt,value
2022-11-16T00:00:23.187Z,2.03
2022-11-16T00:02:51.893Z,1.38
2022-11-16T00:05:27.011Z,2.00
2022-11-16T00:07:56.539Z,1.67
2022-11-16T00:10:24.572Z,1.60
2022-11-16T00:12:52.624Z,1.40
2022-11-16T00:15:20.707Z,1.70
2022-11-16T00:17:48.782Z,1.77
2022-11-16T00:20:17.438Z,1.80
2022-11-16T00:22:46.823Z,1.33
2022-11-16T00:25:14.897Z,1.60
2022-11-16T00:27:42.928Z,1.83
2022-11-16T00:30:11.864Z,1.52
2022-11-16T00:32:39.847Z,1.52
2022-11-16T00:35:09.213Z,1.55
2022-11-16T00:37:37.217Z,1.33
2022-11-16T00:40:08.253Z,1.40
2022-11-16T00:42:36.369Z,1.50
2022-11-16T00:45:04.711Z,1.60
2022-11-16T00:47:32.875Z,2.00
2022-11-16T00:50:00.896Z,2.00
2022-11-16T00:52:29.142Z,1.30
2022-11-16T00:54:57.263Z,1.63
2022-11-16T00:57:26.797Z,1.77
2022-11-16T00:59:54.799Z,1.60
2022-11-16T01:02:22.823Z,1.65
2022-11-16T01:04:50.894Z,1.13
2022-11-16T01:07:19.095Z,1.50
2022-11-16T01:09:47.226Z,1.85
2022-11-16T01:12:14.294Z,1.67
2022-11-16T01:14:46.114Z,1.73
2022-11-16T01:17:15.060Z,1.42
2022-11-16T01:19:43.315Z,2.10
2022-11-16T01:22:11.442Z,1.63
2022-11-16T01:24:39.566Z,1.50
2022-11-16T01:27:08.242Z,1.30
2022-11-16T01:29:36.318Z,1.30
2022-11-16T01:32:06.252Z,1.88
2022-11-16T01:34:34.413Z,1.65
2022-11-16T01:37:02.604Z,1.20
2022-11-16T01:39:30.660Z,1.55
2022-11-16T01:41:58.841Z,1.40
2022-11-16T01:45:09.740Z,1.77
2022-11-16T01:47:39.187Z,1.50
2022-11-16T01:50:12.180Z,1.77
2022-11-16T01:52:44.168Z,1.80
2022-11-16T01:55:13.325Z,1.70
2022-11-16T01:57:44.915Z,1.70
2022-11-16T02:00:14.991Z,1.58
2022-11-16T02:02:45.087Z,1.50
2022-11-16T02:05:17.189Z,1.58
2022-11-16T02:08:28.803Z,2.28
2022-11-16T02:11:15.709Z,2.08
2022-11-16T02:13:53.420Z,1.90
2022-11-16T02:16:31.227Z,1.88
2022-11-16T02:19:17.835Z,1.88
2022-11-16T02:21:52.464Z,1.80
2022-11-16T02:24:43.556Z,1.80
2022-11-16T02:27:48.320Z,2.20
2022-11-16T02:30:21.167Z,2.17
2022-11-16T02:32:53.885Z,1.63
2022-11-16T02:35:28.452Z,1.77
2022-11-16T02:38:01.170Z,1.65
2022-11-16T02:40:32.826Z,2.50
2022-11-16T02:43:05.305Z,1.70
2022-11-16T02:45:37.958Z,2.03
2022-11-16T02:48:10.091Z,2.00
2022-11-16T02:50:39.300Z,2.03
2022-11-16T02:53:07.440Z,1.63
2022-11-16T02:55:37.274Z,2.13
2022-11-16T02:58:08.208Z,2.35
2022-11-16T03:00:43.659Z,2.17
2022-11-16T03:03:20.012Z,1.73
2022-11-16T03:05:52.204Z,1.70
2022-11-16T03:08:26.468Z,2.40
2022-11-16T03:11:17.649Z,1.90
2022-11-16T03:13:47.954Z,1.90
2022-11-16T03:16:22.055Z,1.85
2022-11-16T03:18:53.305Z,2.15
2022-11-16T03:21:26.743Z,2.00
2022-11-16T03:23:55.203Z,2.47
2022-11-16T03:26:27.609Z,1.98
2022-11-16T03:29:00.372Z,2.17
2022-11-16T03:31:33.920Z,2.22
2022-11-16T03:34:06.567Z,1.98
2022-11-16T03:36:38.714Z,2.65
2022-11-16T03:39:11.710Z,2.30
2022-11-16T03:41:44.166Z,2.35
2022-11-16T03:44:14.623Z,2.10
2022-11-16T03:46:45.325Z,2.13
2022-11-16T03:49:13.435Z,2.47
2022-11-16T03:51:41.640Z,2.40
2022-11-16T03:54:09.689Z,2.30
2022-11-16T03:56:37.772Z,2.13
2022-11-16T03:59:05.752Z,2.67
2022-11-16T04:01:34.003Z,2.70
2022-11-16T04:04:03.408Z,2.33
2022-11-16T04:06:49.203Z,2.40
2022-11-16T04:09:34.833Z,2.17
2022-11-16T04:12:20.471Z,2.42
2022-11-16T04:15:06.152Z,2.13
2022-11-16T04:17:51.777Z,1.98
2022-11-16T04:20:38.829Z,2.17
2022-11-16T04:23:27.057Z,2.50
2022-11-16T04:25:55.299Z,2.03
2022-11-16T04:28:27.283Z,2.10
2022-11-16T04:31:16.179Z,2.25
2022-11-16T04:34:02.167Z,2.60
2022-11-16T04:36:48.919Z,2.70
2022-11-16T04:39:17.023Z,3.47
2022-11-16T04:42:02.774Z,2.30
2022-11-16T04:44:55.605Z,2.65
2022-11-16T04:47:22.605Z,2.88
2022-11-16T04:49:50.581Z,2.45
2022-11-16T04:52:19.923Z,3.05
2022-11-16T04:54:48.020Z,2.83
2022-11-16T04:57:16.022Z,3.13
2022-11-16T04:59:44.065Z,3.28
2022-11-16T05:02:12.166Z,2.80
2022-11-16T05:04:42.110Z,2.65
2022-11-16T05:07:12.115Z,2.55
2022-11-16T05:09:43.801Z,2.90
2022-11-16T05:12:14.785Z,2.47
2022-11-16T05:14:46.010Z,3.40
2022-11-16T05:17:14.799Z,2.42
2022-11-16T05:20:01.599Z,2.63
2022-11-16T05:22:29.864Z,3.25
2022-11-16T05:24:59.467Z,3.22
2022-11-16T05:27:29.435Z,2.90
2022-11-16T05:29:57.781Z,3.13
2022-11-16T05:32:27.785Z,3.17
2022-11-16T05:34:55.862Z,2.88
2022-11-16T05:37:26.622Z,2.75
2022-11-16T05:39:54.842Z,2.65
2022-11-16T05:42:24.441Z,2.50
2022-11-16T05:44:52.512Z,2.58
2022-11-16T05:47:20.537Z,2.72
2022-11-16T05:49:48.557Z,2.53
2022-11-16T05:52:16.609Z,2.88
2022-11-16T05:54:44.635Z,2.83
2022-11-16T05:57:12.684Z,3.33
2022-11-16T05:59:45.236Z,2.67
2022-11-16T06:02:13.239Z,6.65
2022-11-16T06:04:41.272Z,3.78
2022-11-16T06:07:09.328Z,2.72
2022-11-16T06:09:37.432Z,2.97
2022-11-16T06:12:06.294Z,2.35
2022-11-16T06:14:34.317Z,3.20
2022-11-16T06:17:03.765Z,3.10
2022-11-16T06:19:32.616Z,3.33
2022-11-16T06:22:00.803Z,3.53
2022-11-16T06:24:28.850Z,2.92
2022-11-16T06:26:56.856Z,3.15
2022-11-16T06:29:24.905Z,3.17
2022-11-16T06:31:52.935Z,2.83
2022-11-16T06:34:22.377Z,3.00
2022-11-16T06:36:50.379Z,3.00
2022-11-16T06:39:18.537Z,3.67
2022-11-16T06:41:46.632Z,3.08
2022-11-16T06:44:14.612Z,2.75
2022-11-16T06:46:42.626Z,3.35
2022-11-16T06:49:11.034Z,3.17
2022-11-16T06:51:40.446Z,3.50
2022-11-16T06:54:08.636Z,6.45
2022-11-16T06:56:36.925Z,2.88
2022-11-16T06:59:04.988Z,2.67
2022-11-16T07:01:33.049Z,3.55
2022-11-16T07:04:01.144Z,2.65
2022-11-16T07:06:29.287Z,3.05
2022-11-16T07:08:58.926Z,2.80
2022-11-16T07:11:26.995Z,2.95
2022-11-16T07:13:55.085Z,2.45
2022-11-16T07:16:23.198Z,2.95
2022-11-16T07:18:51.263Z,2.97
2022-11-16T07:21:19.772Z,2.78
2022-11-16T07:23:47.858Z,2.50
2022-11-16T07:26:17.641Z,2.42
2022-11-16T07:28:48.327Z,3.03
2022-11-16T07:31:17.399Z,2.58
2022-11-16T07:33:45.531Z,3.30
2022-11-16T07:36:15.263Z,2.35
2022-11-16T07:38:43.563Z,2.92
2022-11-16T07:41:13.692Z,2.70
2022-11-16T07:43:47.196Z,2.30
2022-11-16T07:49:11.348Z,2.58
2022-11-16T07:51:39.812Z,3.05
2022-11-16T07:54:08.301Z,2.22
2022-11-16T07:56:36.294Z,2.10
2022-11-16T07:59:06.119Z,1.88
2022-11-16T08:01:34.437Z,2.03
2022-11-16T08:04:02.863Z,2.40
2022-11-16T08:06:32.456Z,2.15
2022-11-16T08:09:00.873Z,2.00
2022-11-16T08:11:29.044Z,2.00
2022-11-16T08:13:58.134Z,1.92
2022-11-16T08:16:27.711Z,2.10
2022-11-16T08:18:55.978Z,1.92
2022-11-16T08:21:24.188Z,2.05
2022-11-16T08:23:57.829Z,3.00
2022-11-16T08:26:27.126Z,2.25
2022-11-16T08:28:57.189Z,2.00
2022-11-16T08:31:28.516Z,2.08
2022-11-16T08:33:57.116Z,2.38
2022-11-16T08:36:25.571Z,2.35
2022-11-16T08:38:53.952Z,1.95
2022-11-16T08:41:23.676Z,1.88
2022-11-16T08:43:53.341Z,2.05
2022-11-16T08:46:21.796Z,1.73
2022-11-16T08:48:55.643Z,2.15
2022-11-16T08:51:24.868Z,1.60
2022-11-16T08:53:57.400Z,1.50
2022-11-16T08:56:27.392Z,1.58
2022-11-16T08:58:59.002Z,1.40
2022-11-16T09:01:29.824Z,1.30
2022-11-16T09:04:00.188Z,1.20
2022-11-16T09:06:28.941Z,1.58
2022-11-16T09:08:57.773Z,1.17
2022-11-16T09:11:26.684Z,1.30
2022-11-16T09:13:55.545Z,1.55
2022-11-16T09:16:24.695Z,0.80
2022-11-16T09:18:53.397Z,1.25
2022-11-16T09:21:24.826Z,1.08
2022-11-16T09:23:54.189Z,1.23
2022-11-16T09:26:23.090Z,10.65
2022-11-16T09:28:56.868Z,2.28
2022-11-16T09:31:27.432Z,1.17
2022-11-16T09:33:58.386Z,0.93
2022-11-16T09:36:28.879Z,0.98
2022-11-16T09:41:57.166Z,1.15
2022-11-16T09:44:45.676Z,1.60
2022-11-16T09:47:18.670Z,1.10
2022-11-16T09:49:52.324Z,1.40
2022-11-16T09:52:28.236Z,1.10
2022-11-16T09:54:59.497Z,1.00
2022-11-16T09:57:33.734Z,1.00
2022-11-16T10:00:05.659Z,0.90
2022-11-16T10:02:38.697Z,1.27
2022-11-16T10:05:19.164Z,1.33
2022-11-16T10:07:51.623Z,0.80
2022-11-16T10:10:27.311Z,1.00
2022-11-16T10:13:06.454Z,1.05
2022-11-16T10:15:49.485Z,1.00
2022-11-16T10:18:39.588Z,1.13
2022-11-16T10:21:20.233Z,1.10
2022-11-16T10:24:05.887Z,1.25
2022-11-16T10:26:41.288Z,0.90
2022-11-16T10:29:26.512Z,1.08
2022-11-16T10:32:04.462Z,0.90
2022-11-16T10:34:42.620Z,1.10
2022-11-16T10:37:14.179Z,0.82
2022-11-16T10:39:44.692Z,1.08
2022-11-16T10:42:15.607Z,1.08
2022-11-16T10:44:47.165Z,1.02
2022-11-16T10:47:22.023Z,0.82
2022-11-16T10:49:56.966Z,1.02
2022-11-16T10:52:25.331Z,1.25
2022-11-16T10:54:55.324Z,0.75
2022-11-16T10:57:26.532Z,0.98
2022-11-16T10:59:56.602Z,0.70
2022-11-16T11:02:39.214Z,0.75
2022-11-16T11:05:17.972Z,0.90
2022-11-16T11:07:54.069Z,0.70
2022-11-16T11:10:33.239Z,0.88
2022-11-16T11:13:08.804Z,0.75
2022-11-16T11:15:37.416Z,1.02
2022-11-16T11:18:26.933Z,0.93
2022-11-16T11:21:08.131Z,1.30
2022-11-16T11:23:44.061Z,0.60
2022-11-16T11:26:34.682Z,0.82
2022-11-16T11:29:16.770Z,0.82
2022-11-16T11:31:48.521Z,0.93
2022-11-16T11:34:21.665Z,0.70
2022-11-16T11:36:55.101Z,0.55
2022-11-16T11:39:34.534Z,1.00
2022-11-16T11:42:21.566Z,0.68
2022-11-16T11:44:57.235Z,1.13
2022-11-16T11:48:01.422Z,0.80
2022-11-16T11:50:43.651Z,0.85
2022-11-16T11:53:22.654Z,0.57
2022-11-16T11:55:57.202Z,0.80
2022-11-16T11:58:31.514Z,0.65
2022-11-16T12:01:30.947Z,0.95
2022-11-16T12:04:47.686Z,0.57
2022-11-16T12:07:28.221Z,0.68
2022-11-16T12:10:02.006Z,0.70
2022-11-16T12:12:49.610Z,0.60
2022-11-16T12:15:40.244Z,0.70
2022-11-16T12:18:22.678Z,0.82
2022-11-16T12:20:56.963Z,0.50
2022-11-16T12:23:50.230Z,0.60
2022-11-16T12:26:24.904Z,0.50
2022-11-16T12:29:02.247Z,0.63
2022-11-16T12:31:52.491Z,0.88
2022-11-16T12:34:29.734Z,0.73
2022-11-16T12:37:05.030Z,0.65
2022-11-16T12:39:36.855Z,0.75
2022-11-16T12:42:32.880Z,0.50
2022-11-16T12:45:27.586Z,0.47
2022-11-16T12:48:23.270Z,0.82
2022-11-16T12:50:57.592Z,0.70
2022-11-16T12:54:00.329Z,0.65
2022-11-16T12:56:38.422Z,0.60
2022-11-16T12:59:18.787Z,0.77
2022-11-16T13:02:00.266Z,0.55
2022-11-16T13:04:34.683Z,0.70
2022-11-16T13:07:11.694Z,0.50
2022-11-16T13:09:43.021Z,0.73
2022-11-16T13:12:17.157Z,0.90
2022-11-16T13:14:48.100Z,0.68
2022-11-16T13:17:21.747Z,0.85
2022-11-16T13:20:06.285Z,0.77
2022-11-16T13:22:40.764Z,0.70
2022-11-16T13:25:19.782Z,0.77
2022-11-16T13:27:54.804Z,0.82
2022-11-16T13:30:25.642Z,1.13
2022-11-16T13:33:16.009Z,0.57
2022-11-16T13:35:45.808Z,0.55
2022-11-16T13:38:14.728Z,0.65
2022-11-16T13:40:43.199Z,0.65
2022-11-16T13:43:20.987Z,0.65
2022-11-16T13:45:57.158Z,0.50
2022-11-16T13:48:28.872Z,0.57
2022-11-16T13:51:01.524Z,0.75
2022-11-16T13:56:28.629Z,0.73
2022-11-16T13:58:58.479Z,0.35
2022-11-16T14:01:26.996Z,0.57
2022-11-16T14:04:40.929Z,0.70
2022-11-16T14:07:33.891Z,0.88
2022-11-16T14:10:05.583Z,0.40
2022-11-16T14:13:08.592Z,0.55
2022-11-16T14:15:37.947Z,0.38
2022-11-16T14:18:32.838Z,0.65
2022-11-16T14:21:07.274Z,0.57
2022-11-16T14:23:57.214Z,0.70
2022-11-16T14:26:35.056Z,0.70
2022-11-16T14:29:21.623Z,1.15
2022-11-16T14:31:53.633Z,1.85
2022-11-16T14:34:25.552Z,3.97
2022-11-16T14:36:54.345Z,1.25
2022-11-16T14:39:30.898Z,0.68
2022-11-16T14:42:01.609Z,0.98
2022-11-16T14:44:33.454Z,0.70
2022-11-16T14:47:03.379Z,0.40
2022-11-16T14:49:34.779Z,0.60
2022-11-16T14:52:05.502Z,1.08
2022-11-16T14:54:39.552Z,0.38
2022-11-16T14:57:13.790Z,0.52
2022-11-16T14:59:41.890Z,0.50
2022-11-16T15:02:20.267Z,0.40
2022-11-16T15:04:49.825Z,0.68
2022-11-16T15:07:19.974Z,0.57
2022-11-16T15:09:52.799Z,0.40
2022-11-16T15:12:41.638Z,0.40
2022-11-16T15:15:16.547Z,0.40
2022-11-16T15:17:47.204Z,0.28
2022-11-16T15:20:21.363Z,0.47
2022-11-16T15:22:53.572Z,0.60
2022-11-16T15:25:28.806Z,0.55
2022-11-16T15:27:59.675Z,0.60
2022-11-16T15:30:34.187Z,0.60
2022-11-16T15:33:04.993Z,0.60
2022-11-16T15:35:35.043Z,0.63
2022-11-16T15:38:05.538Z,0.40
2022-11-16T15:40:36.507Z,1.38
2022-11-16T15:43:06.895Z,1.08
2022-11-16T15:45:37.361Z,0.93
2022-11-16T15:48:06.419Z,0.70
2022-11-16T15:50:34.876Z,0.65
2022-11-16T15:53:03.124Z,1.00
2022-11-16T15:55:39.938Z,0.93
2022-11-16T15:58:16.336Z,0.73
2022-11-16T16:00:49.471Z,0.93
2022-11-16T16:03:23.555Z,1.00
2022-11-16T16:05:52.584Z,1.25
2022-11-16T16:08:32.923Z,1.10
2022-11-16T16:11:09.744Z,1.30
2022-11-16T16:13:41.659Z,1.17
2022-11-16T16:16:31.959Z,1.27
2022-11-16T16:19:09.274Z,1.40
2022-11-16T16:21:45.866Z,1.45
2022-11-16T16:24:36.701Z,1.65
2022-11-16T16:27:15.212Z,1.50
2022-11-16T16:29:43.616Z,2.42
2022-11-16T16:32:16.191Z,3.45
2022-11-16T16:34:44.546Z,1.55
2022-11-16T16:37:13.822Z,2.10
2022-11-16T16:39:42.654Z,1.85
2022-11-16T16:42:14.353Z,1.40
2022-11-16T16:44:42.995Z,1.63
2022-11-16T16:47:11.857Z,1.30
2022-11-16T16:49:40.371Z,1.45
2022-11-16T16:52:09.061Z,1.52
2022-11-16T16:54:37.438Z,1.65
2022-11-16T16:57:05.910Z,1.55
2022-11-16T16:59:36.336Z,1.70
2022-11-16T17:02:04.629Z,1.58
2022-11-16T17:04:33.804Z,1.55
2022-11-16T17:07:02.028Z,1.48
2022-11-16T17:09:30.356Z,1.77
2022-11-16T17:11:58.500Z,1.80
2022-11-16T17:14:26.818Z,1.63
2022-11-16T17:16:56.717Z,2.10
2022-11-16T17:19:25.200Z,2.10
2022-11-16T17:21:53.556Z,1.92
2022-11-16T17:24:21.735Z,1.88
2022-11-16T17:26:50.675Z,2.78
2022-11-16T17:29:18.995Z,3.58
2022-11-16T17:31:48.221Z,2.15
2022-11-16T17:34:17.868Z,2.20
2022-11-16T17:36:46.105Z,2.63
2022-11-16T17:39:18.241Z,2.50
2022-11-16T17:41:47.071Z,1.70
2022-11-16T17:44:21.657Z,2.13
2022-11-16T17:46:50.504Z,1.98
2022-11-16T17:49:20.211Z,1.80
2022-11-16T17:51:48.383Z,1.52
2022-11-16T17:54:16.642Z,2.38
2022-11-16T17:56:44.955Z,1.83
2022-11-16T17:59:13.118Z,2.08
2022-11-16T18:01:41.346Z,1.90
2022-11-16T18:04:09.642Z,1.65
2022-11-16T18:06:40.044Z,1.50
2022-11-16T18:09:08.376Z,1.80
2022-11-16T18:11:39.395Z,1.75
2022-11-16T18:14:08.400Z,1.70
2022-11-16T18:16:37.581Z,1.80
2022-11-16T18:19:07.061Z,2.15
2022-11-16T18:21:42.182Z,1.92
2022-11-16T18:24:11.397Z,1.50
2022-11-16T18:26:40.357Z,1.85
2022-11-16T18:29:12.292Z,1.48
2022-11-16T18:31:40.596Z,1.60
2022-11-16T18:34:08.787Z,1.85
2022-11-16T18:36:36.983Z,2.20
2022-11-16T18:39:06.806Z,1.65
2022-11-16T18:41:34.969Z,2.00
2022-11-16T18:44:03.765Z,1.88
2022-11-16T18:46:33.627Z,2.42
2022-11-16T18:49:02.507Z,1.85
2022-11-16T18:51:31.336Z,2.25
2022-11-16T18:54:00.041Z,2.20
2022-11-16T18:56:29.640Z,3.13
2022-11-16T18:58:58.000Z,2.00
2022-11-16T19:01:27.875Z,1.90
2022-11-16T19:03:57.013Z,2.28
2022-11-16T19:06:25.812Z,1.60
2022-11-16T19:08:59.666Z,1.52
2022-11-16T19:11:29.872Z,1.30
2022-11-16T19:14:00.769Z,1.50
2022-11-16T19:16:29.271Z,1.25
2022-11-16T19:18:57.933Z,1.77
2022-11-16T19:21:26.360Z,1.45
2022-11-16T19:23:56.264Z,1.90
2022-11-16T19:26:25.675Z,1.35
2022-11-16T19:28:55.659Z,1.63
2022-11-16T19:31:26.063Z,1.08
2022-11-16T19:33:58.708Z,1.45
2022-11-16T19:36:28.473Z,1.08
2022-11-16T19:38:57.439Z,1.05
2022-11-16T19:41:27.141Z,1.05
2022-11-16T19:43:59.990Z,0.90
2022-11-16T19:46:29.180Z,0.90
2022-11-16T19:48:58.148Z,0.93
2022-11-16T19:51:28.792Z,1.00
2022-11-16T19:53:57.659Z,1.20
2022-11-16T19:56:26.228Z,0.95
2022-11-16T19:58:56.331Z,1.20
2022-11-16T20:01:27.981Z,0.95
2022-11-16T20:03:57.841Z,1.35
2022-11-16T20:06:29.161Z,1.55
2022-11-16T20:09:00.982Z,0.82
2022-11-16T20:11:30.543Z,1.08
2022-11-16T20:14:00.208Z,1.20
2022-11-16T20:16:34.089Z,1.83
2022-11-16T20:19:05.539Z,1.15
2022-11-16T20:21:35.757Z,1.30
2022-11-16T20:24:07.096Z,1.20
2022-11-16T20:26:37.270Z,1.27
2022-11-16T20:29:07.043Z,1.10
2022-11-16T20:31:35.373Z,1.38
2022-11-16T20:34:05.363Z,1.10
2022-11-16T20:36:34.503Z,2.78
2022-11-16T20:39:02.760Z,1.35
2022-11-16T20:41:32.260Z,1.05
2022-11-16T20:44:02.602Z,1.38
2022-11-16T20:46:36.756Z,0.88
2022-11-16T20:49:05.165Z,0.98
2022-11-16T20:51:33.354Z,1.10
2022-11-16T20:54:01.519Z,1.40
2022-11-16T20:56:30.083Z,1.13
2022-11-16T20:58:58.718Z,1.48
2022-11-16T21:01:31.825Z,0.85
2022-11-16T21:04:03.956Z,1.23
2022-11-16T21:06:32.549Z,1.23
2022-11-16T21:09:01.262Z,1.10
2022-11-16T21:11:51.394Z,0.95
2022-11-16T21:14:18.820Z,0.90
2022-11-16T21:16:46.875Z,1.40
2022-11-16T21:19:16.913Z,1.50
2022-11-16T21:21:47.776Z,0.90
2022-11-16T21:24:15.879Z,1.35
2022-11-16T21:26:44.350Z,0.95
2022-11-16T21:29:12.467Z,1.02
2022-11-16T21:31:40.834Z,1.33
2022-11-16T21:34:09.084Z,1.00
2022-11-16T21:36:38.705Z,1.30
2022-11-16T21:39:06.831Z,1.23
2022-11-16T21:41:35.025Z,0.95
2022-11-16T21:44:03.226Z,1.42
2022-11-16T21:46:31.348Z,1.15
2022-11-16T21:48:59.512Z,1.27
2022-11-16T21:51:28.239Z,1.58
2022-11-16T21:53:58.034Z,1.20
2022-11-16T21:56:27.113Z,1.13
2022-11-16T21:58:55.603Z,1.65
2022-11-16T22:01:24.753Z,1.30
2022-11-16T22:04:07.090Z,0.90
2022-11-16T22:06:52.545Z,1.48
2022-11-16T22:09:22.308Z,1.50
2022-11-16T22:11:50.485Z,2.08
2022-11-16T22:14:18.574Z,1.20
2022-11-16T22:16:46.668Z,1.20
2022-11-16T22:19:14.709Z,1.55
2022-11-16T22:21:42.857Z,1.30
2022-11-16T22:24:10.952Z,1.15
2022-11-16T22:26:41.110Z,1.17
2022-11-16T22:29:09.365Z,1.40
2022-11-16T22:31:37.383Z,2.08
2022-11-16T22:34:05.598Z,1.55
2022-11-16T22:36:33.693Z,1.40
2022-11-16T22:39:02.576Z,2.33
2022-11-16T22:41:30.808Z,1.25
2022-11-16T22:44:00.256Z,1.77
2022-11-16T22:46:28.405Z,1.52
2022-11-16T22:48:56.504Z,2.05
2022-11-16T22:51:26.508Z,1.30
2022-11-16T22:53:55.701Z,1.52
2022-11-16T22:56:24.106Z,1.50
2022-11-16T22:58:52.685Z,1.38
2022-11-16T23:01:22.469Z,1.50
2022-11-16T23:03:51.104Z,1.65
2022-11-16T23:06:19.656Z,1.65
2022-11-16T23:08:47.730Z,2.03
2022-11-16T23:11:34.905Z,1.95
2022-11-16T23:14:23.600Z,1.73
2022-11-16T23:16:53.224Z,1.67
2022-11-16T23:19:40.026Z,1.90
2022-11-16T23:22:26.153Z,1.80
2022-11-16T23:25:11.629Z,1.85
2022-11-16T23:27:42.523Z,1.65
2022-11-16T23:30:12.995Z,1.80
2022-11-16T23:32:43.029Z,1.85
2022-11-16T23:35:12.127Z,1.95
2022-11-16T23:37:54.527Z,2.22
2022-11-16T23:40:27.036Z,2.10
2022-11-16T23:43:13.408Z,1.75
2022-11-16T23:45:42.777Z,2.40
2022-11-16T23:48:13.530Z,2.67
2022-11-16T23:50:42.029Z,1.80
2022-11-16T23:53:11.344Z,1.70
2022-11-16T23:55:40.733Z,1.80
2022-11-16T23:58:13.551Z,1.70
